• Join FlightAware (Why Join?)
  • Login
  • US Flag 
04:20PM EDT


 

Airport Tracker/Info


-or-


 

Live Flight TrackerFlight Track Log ✈ N449ND ✈ 27-Mar-2014 ✈ KFPR - KPIE

Flight Track Log - Related Links

Times and Time Zones

All times are in EDT time to prevent confusion due to time zone crossing. See the N449ND flight status page for this flight to view local times or setup timezone preferences in your user account.

Time Position Orientation Groundspeed Altitude Reporting Facility
EDT Latitude Longitude Course Direction KTS MPH feet Rate Location/Type
08:32AM 27.4983 -80.3522 329° Northwest 100 115 600  Level Miami Center
08:33AM 27.4989 -80.3314 88° East 83 96 1,300 600 Climbing Miami Center
08:34AM 27.4992 -80.3125 89° East 72 83 1,900 1,320 Climbing Miami Center
08:35AM 27.5019 -80.2917 81° East 66 76 4,000 540 Climbing Miami Center
08:36AM 27.5044 -80.2706 82° East 66 76 3,000 -240 Descending Miami Center
08:37AM 27.6185 -80.4512 329° Northwest  Level FlightAware Approximate
08:37AM 27.5250 -80.2828 332° Northwest 45 52 3,600  Level Miami Center
08:38AM 27.5369 -80.3114 295° West 90 104 3,900 180 Climbing Miami Center
08:39AM 27.5550 -80.3422 303° West 115 132 4,000  Climbing Miami Center
08:40AM 27.5753 -80.3664 313° West 121 139 3,900 -60 Descending Miami Center
08:41AM 27.5997 -80.3953 314° West 126 145 3,900  Level Miami Center
08:42AM 27.6239 -80.4242 313° West 121 139 4,000  Climbing Miami Center
08:43AM 27.6461 -80.4553 309° West 121 139 3,900  Descending Miami Center
08:44AM 27.6686 -80.4794 316° Northwest 121 139 4,000  Climbing Miami Center
08:45AM 27.6886 -80.5106 306° West 121 139 4,000  Level Miami Center
08:46AM 27.7022 -80.5486 292° West 121 139 4,000 -60 Level Miami Center
08:47AM 27.7181 -80.5842 297° West 121 139 3,900 -60 Descending Miami Center
08:48AM 27.7339 -80.6175 298° West 121 139 3,900  Level Miami Center
08:49AM 27.7475 -80.6508 295° West 121 139 3,900  Level Miami Center
08:50AM 27.7614 -80.6842 295° West 121 139 4,000  Climbing Miami Center
08:51AM 27.7792 -80.7222 298° West 121 139 4,000 -60 Level Miami Center
08:52AM 27.7947 -80.7581 296° West 121 139 3,900 -60 Descending Miami Center
08:53AM 27.8106 -80.7892 300° West 121 139 3,900  Level Miami Center
08:54AM 27.8264 -80.8272 295° West 121 139 4,000  Climbing Miami Center
08:55AM 27.8378 -80.8650 289° West 121 139 4,000 -60 Level Miami Center
08:56AM 27.8411 -80.9006 276° West 121 139 3,900 -60 Descending Miami Center
08:57AM 27.8439 -80.9428 274° West 126 145 3,900  Level Miami Center
08:58AM 27.8469 -80.9806 275° West 126 145 3,900  Level Miami Center
08:59AM 27.8544 -81.0161 283° West 121 139 3,900  Level Miami Center
09:00AM 27.8597 -81.0514 280° West 121 139 4,000  Climbing Miami Center
09:01AM 27.8669 -81.0869 283° West 121 139 4,000  Level Miami Center
09:02AM 27.8700 -81.1292 275° West 121 139 4,000 -60 Level Miami Center
09:03AM 27.8708 -81.1669 271° West 121 139 3,900 -60 Descending Miami Center
09:04AM 27.8717 -81.2069 271° West 121 139 3,900  Level Miami Center
09:05AM 27.8811 -81.2425 287° West 121 139 3,900  Level Miami Center
09:06AM 27.8903 -81.2850 284° West 126 145 4,000  Climbing Miami Center
09:07AM 27.8933 -81.3228 275° West 126 145 3,900 -60 Descending Miami Center
09:08AM 27.9003 -81.3606 282° West 126 145 3,900  Level Miami Center
09:09AM 27.9075 -81.3986 282° West 126 145 4,000  Climbing Miami Center
09:10AM 27.9125 -81.4364 279° West 126 145 4,000  Level Miami Center
09:11AM 27.9156 -81.4739 275° West 126 145 4,000  Level Miami Center
09:12AM 27.9228 -81.5119 282° West 126 145 4,000  Level Miami Center
09:13AM 27.9278 -81.5497 279° West 126 145 4,000  Level Miami Center
09:14AM 27.9306 -81.5875 275° West 126 145 4,000  Level Miami Center
09:15AM 27.9356 -81.6250 279° West 126 145 4,000  Level Miami Center
09:16AM 27.9406 -81.6631 278° West 126 145 4,000  Level Miami Center
09:17AM 27.9456 -81.7008 279° West 126 145 4,100  Climbing Miami Center
09:18AM 27.9506 -81.7386 279° West 126 145 4,000  Descending Miami Center
09:19AM 27.9536 -81.7764 275° West 126 145 4,100  Climbing Miami Center
09:20AM 27.9606 -81.8119 282° West 126 145 4,000 -60 Descending Miami Center
09:21AM 27.9656 -81.8497 279° West 126 145 4,000  Level Miami Center
09:22AM 27.9686 -81.8872 275° West 126 145 4,000  Level Miami Center
09:23AM 27.9756 -81.9206 283° West 126 145 4,000  Level Miami Center
09:24AM 27.9806 -81.9583 279° West 126 145 4,000  Level Miami Center
09:25AM 27.9836 -81.9939 276° West 126 145 4,000  Level Miami Center
09:26AM 27.9833 -82.0333 270° West 109 125 4,000  Level Tampa TRACON
09:27AM 27.9833 -82.0667 270° West 115 132 4,000  Level Tampa TRACON
09:28AM 27.9833 -82.1167 270° West 112 129 4,000  Level Tampa TRACON
09:29AM 27.9833 -82.1500 270° West 113 130 4,000  Level Tampa TRACON
09:30AM 28.0000 -82.1833 300° West 113 130 4,000  Level Tampa TRACON
09:31AM 28.0000 -82.2167 270° West 110 127 4,000 -60 Level Tampa TRACON
09:32AM 28.0000 -82.2500 270° West 109 125 3,900  Descending Tampa TRACON
09:33AM 27.9833 -82.2833 240° Southwest 108 124 4,000  Climbing Tampa TRACON
09:34AM 27.9833 -82.3167 270° West 101 116 4,000  Level Tampa TRACON
09:35AM 27.9833 -82.3500 270° West 101 116 4,000  Level Tampa TRACON
09:36AM 27.9667 -82.3667 221° Southwest 107 123 4,100  Climbing Tampa TRACON
09:37AM 27.9667 -82.4000 270° West 107 123 4,100  Level Tampa TRACON
09:38AM 27.9667 -82.4500 270° West 106 122 4,100 -60 Level Tampa TRACON
09:39AM 27.9667 -82.4833 270° West 108 124 4,000 -60 Descending Tampa TRACON
09:40AM 27.9667 -82.5167 270° West 104 120 4,000  Level Tampa TRACON
09:41AM 27.9667 -82.5333 270° West 106 122 4,000  Level Tampa TRACON
09:42AM 27.9667 -82.5833 270° West 102 117 4,000  Level Tampa TRACON
09:43AM 27.9667 -82.6000 270° West 99 114 4,000  Level Tampa TRACON
09:44AM 27.9667 -82.6333 270° West 97 112 4,000  Level Tampa TRACON
09:45AM 27.9500 -82.6667 240° Southwest 93 107 4,000  Level Tampa TRACON
09:46AM 27.9333 -82.6833 221° Southwest 93 107 4,000  Level Tampa TRACON
09:47AM 27.9167 -82.7167 241° Southwest 96 110 4,000 -180 Level Tampa TRACON
09:48AM 27.9000 -82.7333 221° Southwest 83 96 3,700 -480 Descending Tampa TRACON
09:50AM 27.8833 -82.7333 180° South 80 92 3,000 -600 Descending Tampa TRACON
09:50AM 27.8667 -82.7333 180° South 80 92 2,600 -600 Descending Tampa TRACON
09:51AM 27.8333 -82.7333 180° South 82 94 2,000 -300 Descending Tampa TRACON
09:52AM 27.8167 -82.7333 180° South 87 100 2,000  Level Tampa TRACON
09:53AM 27.8000 -82.7333 180° South 82 94 2,000  Level Tampa TRACON
09:54AM 27.7667 -82.7333 180° South 82 94 2,000 -60 Level Tampa TRACON
09:55AM 27.7500 -82.7167 138° Southeast 76 87 1,900  Descending Tampa TRACON
09:56AM 27.7500 -82.6833 90° East 85 98 2,000 60 Climbing Tampa TRACON
09:57AM 27.7667 -82.6667 42° Northeast 85 98 2,100  Climbing Tampa TRACON
09:58AM 27.7833 -82.6667 360° North 127 146 2,000 -180 Descending Tampa TRACON
10:00AM 27.8167 -82.6667 360° North 133 153 1,800 -480 Descending Tampa TRACON
10:01AM 27.8500 -82.6833 336° Northwest 123 142 1,100 -660 Descending Tampa TRACON
10:02AM 27.8833 -82.6833 360° North 84 97 500 -600 Descending Tampa TRACON